createdAt,value
2023-02-28T00:01:44.310Z,102477.94
2023-02-28T00:04:12.260Z,102481.84
2023-02-28T00:06:40.199Z,102481.34
2023-02-28T00:09:08.162Z,102479.00
2023-02-28T00:11:36.184Z,102480.56
2023-02-28T00:14:04.207Z,102476.75
2023-02-28T00:16:32.101Z,102483.22
2023-02-28T00:19:00.100Z,102486.97
2023-02-28T00:21:28.340Z,102487.16
2023-02-28T00:23:56.391Z,102486.13
2023-02-28T00:26:24.518Z,102474.81
2023-02-28T00:28:53.989Z,102483.78
2023-02-28T00:31:22.069Z,102484.53
2023-02-28T00:33:51.876Z,102494.75
2023-02-28T00:36:19.950Z,102487.13
2023-02-28T00:38:47.918Z,102494.56
2023-02-28T00:41:16.179Z,102487.59
2023-02-28T00:43:44.120Z,102485.84
2023-02-28T00:46:12.053Z,102484.72
2023-02-28T00:48:40.100Z,102489.50
2023-02-28T00:51:08.065Z,102485.81
2023-02-28T00:53:36.102Z,102485.75
2023-02-28T00:56:04.719Z,102486.72
2023-02-28T00:58:32.724Z,102487.41
2023-02-28T01:01:00.781Z,102486.97
2023-02-28T01:03:28.773Z,102484.69
2023-02-28T01:05:56.814Z,102485.31
2023-02-28T01:08:26.981Z,102483.41
2023-02-28T01:10:55.524Z,102481.59
2023-02-28T01:13:24.283Z,102487.03
2023-02-28T01:15:57.078Z,102489.56
2023-02-28T01:18:25.581Z,102483.91
2023-02-28T01:20:53.695Z,102481.03
2023-02-28T01:23:24.469Z,102480.72
2023-02-28T01:25:53.983Z,102479.13
2023-02-28T01:28:22.559Z,102481.44
2023-02-28T01:30:52.693Z,102481.50
2023-02-28T01:33:20.899Z,102476.78
2023-02-28T01:35:49.357Z,102472.09
2023-02-28T01:38:22.619Z,102474.81
2023-02-28T01:40:51.851Z,102475.84
2023-02-28T01:44:27.385Z,102469.75
2023-02-28T01:46:55.255Z,102474.09
2023-02-28T01:49:23.210Z,102469.72
2023-02-28T01:51:55.912Z,102461.06
2023-02-28T01:54:30.555Z,102473.09
2023-02-28T01:57:09.966Z,102472.53
2023-02-28T01:59:59.459Z,102465.94
2023-02-28T02:02:29.835Z,102472.03
2023-02-28T02:05:21.566Z,102470.38
2023-02-28T02:07:57.911Z,102467.28
2023-02-28T02:10:54.895Z,102464.06
2023-02-28T02:13:53.760Z,102463.66
2023-02-28T02:16:27.186Z,102467.31
2023-02-28T02:19:30.793Z,102464.91
2023-02-28T02:22:46.266Z,102466.50
2023-02-28T02:25:40.447Z,102465.66
2023-02-28T02:29:04.297Z,102462.63
2023-02-28T02:32:18.446Z,102469.53
2023-02-28T02:35:32.615Z,102474.91
2023-02-28T02:38:35.380Z,102465.00
2023-02-28T02:41:47.338Z,102464.22
2023-02-28T02:44:29.731Z,102474.47
2023-02-28T02:47:12.433Z,102469.91
2023-02-28T02:49:48.395Z,102475.69
2023-02-28T02:52:22.890Z,102482.81
2023-02-28T02:54:56.684Z,102478.38
2023-02-28T02:57:40.195Z,102476.63
2023-02-28T03:00:09.986Z,102474.09
2023-02-28T03:02:40.240Z,102476.50
2023-02-28T03:05:49.981Z,102472.94
2023-02-28T03:08:18.352Z,102477.44
2023-02-28T03:10:52.082Z,102475.00
2023-02-28T03:14:10.976Z,102477.59
2023-02-28T03:16:59.353Z,102472.63
2023-02-28T03:20:13.664Z,102483.78
2023-02-28T03:23:03.282Z,102483.03
2023-02-28T03:25:57.126Z,102487.25
2023-02-28T03:28:24.865Z,102488.09
2023-02-28T03:31:04.887Z,102485.50
2023-02-28T03:33:55.967Z,102485.44
2023-02-28T03:36:37.379Z,102495.78
2023-02-28T03:39:37.893Z,102488.91
2023-02-28T03:42:19.017Z,102488.00
2023-02-28T03:44:57.829Z,102488.00
2023-02-28T03:47:44.634Z,102487.19
2023-02-28T03:50:23.334Z,102485.50
2023-02-28T03:53:20.418Z,102482.91
2023-02-28T03:56:12.372Z,102490.75
2023-02-28T03:59:06.334Z,102495.06
2023-02-28T04:01:42.165Z,102494.22
2023-02-28T04:04:12.438Z,102495.06
2023-02-28T04:06:42.040Z,102493.28
2023-02-28T04:09:14.668Z,102495.00
2023-02-28T04:11:53.282Z,102491.66
2023-02-28T04:14:21.391Z,102491.66
2023-02-28T04:16:49.929Z,102493.38
2023-02-28T04:19:18.437Z,102494.25
2023-02-28T04:21:52.860Z,102493.41
2023-02-28T04:24:28.961Z,102503.69
2023-02-28T04:26:59.134Z,102501.94
2023-02-28T04:29:32.732Z,102501.97
2023-02-28T04:32:02.753Z,102507.97
2023-02-28T04:34:34.391Z,102501.09
2023-02-28T04:37:12.960Z,102505.38
2023-02-28T04:39:45.849Z,102498.53
2023-02-28T04:42:14.995Z,102504.50
2023-02-28T04:44:43.112Z,102502.81
2023-02-28T04:47:11.147Z,102498.50
2023-02-28T04:49:39.299Z,102502.78
2023-02-28T04:52:08.494Z,102503.66
2023-02-28T04:54:36.442Z,102496.75
2023-02-28T04:57:05.378Z,102500.22
2023-02-28T04:59:33.846Z,102502.81
2023-02-28T05:02:07.498Z,102504.53
2023-02-28T05:04:36.582Z,102513.94
2023-02-28T05:07:05.120Z,102510.53
2023-02-28T05:09:34.355Z,102513.94
2023-02-28T05:12:02.404Z,102517.38
2023-02-28T05:14:30.366Z,102519.06
2023-02-28T05:16:58.246Z,102525.09
2023-02-28T05:19:28.887Z,102519.06
2023-02-28T05:21:57.249Z,102523.38
2023-02-28T05:24:25.235Z,102525.94
2023-02-28T05:26:55.786Z,102519.94
2023-02-28T05:29:23.936Z,102521.63
2023-02-28T05:31:52.041Z,102523.34
2023-02-28T05:34:20.237Z,102531.00
2023-02-28T05:36:48.255Z,102530.13
2023-02-28T05:39:16.210Z,102532.75
2023-02-28T05:41:45.502Z,102540.41
2023-02-28T05:44:13.662Z,102534.44
2023-02-28T05:46:41.752Z,102529.25
2023-02-28T05:49:09.792Z,102532.75
2023-02-28T05:51:40.716Z,102542.13
2023-02-28T05:54:09.574Z,102546.41
2023-02-28T05:56:40.924Z,102543.88
2023-02-28T05:59:08.840Z,102544.72
2023-02-28T06:01:39.461Z,102540.47
2023-02-28T06:04:22.192Z,102539.59
2023-02-28T06:06:53.772Z,102545.59
2023-02-28T06:09:21.696Z,102545.63
2023-02-28T06:11:49.763Z,102540.47
2023-02-28T06:14:21.558Z,102538.75
2023-02-28T06:16:49.715Z,102532.75
2023-02-28T06:19:18.136Z,102542.19
2023-02-28T06:21:49.694Z,102541.34
2023-02-28T06:24:17.615Z,102550.75
2023-02-28T06:26:45.681Z,102556.72
2023-02-28T06:29:19.269Z,102554.97
2023-02-28T06:31:48.000Z,102558.47
2023-02-28T06:34:16.298Z,102560.19
2023-02-28T06:36:44.695Z,102562.75
2023-02-28T06:39:12.887Z,102561.88
2023-02-28T06:41:54.053Z,102568.69
2023-02-28T06:44:27.626Z,102567.88
2023-02-28T06:46:55.540Z,102573.84
2023-02-28T06:49:26.270Z,102573.84
2023-02-28T06:51:55.055Z,102568.63
2023-02-28T06:54:23.247Z,102571.22
2023-02-28T06:56:51.217Z,102589.06
2023-02-28T06:59:19.237Z,102580.38
2023-02-28T07:01:59.638Z,102588.88
2023-02-28T07:04:27.824Z,102591.78
2023-02-28T07:06:57.938Z,102588.22
2023-02-28T07:09:30.717Z,102578.94
2023-02-28T07:11:58.657Z,102588.16
2023-02-28T07:14:26.997Z,102582.19
2023-02-28T07:16:54.883Z,102584.56
2023-02-28T07:19:22.768Z,102583.66
2023-02-28T07:21:50.781Z,102583.66
2023-02-28T07:24:18.940Z,102583.97
2023-02-28T07:26:46.867Z,102586.75
2023-02-28T07:29:14.747Z,102592.44
2023-02-28T07:31:42.659Z,102587.72
2023-02-28T07:34:10.609Z,102587.19
2023-02-28T07:36:38.557Z,102585.91
2023-02-28T07:39:06.452Z,102583.59
2023-02-28T07:41:35.036Z,102595.97
2023-02-28T07:44:04.134Z,102587.94
2023-02-28T07:46:36.831Z,102589.59
2023-02-28T07:49:06.631Z,102585.72
2023-02-28T07:51:34.986Z,102584.69
2023-02-28T07:54:03.445Z,102590.81
2023-02-28T07:56:31.967Z,102584.41
2023-02-28T07:59:00.102Z,102578.97
2023-02-28T08:01:28.557Z,102589.50
2023-02-28T08:03:57.964Z,102587.22
2023-02-28T08:06:27.286Z,102585.22
2023-02-28T08:08:56.972Z,102588.84
2023-02-28T08:11:24.971Z,102591.19
2023-02-28T08:13:53.155Z,102592.25
2023-02-28T08:16:23.280Z,102594.44
2023-02-28T08:18:53.170Z,102588.91
2023-02-28T08:21:22.519Z,102587.53
2023-02-28T08:23:52.234Z,102593.03
2023-02-28T08:26:21.228Z,102587.19
2023-02-28T08:28:49.291Z,102589.25
2023-02-28T08:31:18.212Z,102580.09
2023-02-28T08:33:46.821Z,102584.78
2023-02-28T08:36:15.958Z,102587.59
2023-02-28T08:38:44.927Z,102587.91
2023-02-28T08:41:16.721Z,102589.56
2023-02-28T08:43:44.760Z,102585.47
2023-02-28T08:46:15.035Z,102581.09
2023-02-28T08:48:43.066Z,102590.56
2023-02-28T08:51:19.594Z,102595.66
2023-02-28T08:53:47.649Z,102597.44
2023-02-28T08:56:20.423Z,102598.34
2023-02-28T08:58:51.165Z,102598.59
2023-02-28T09:01:37.570Z,102600.94
2023-02-28T09:04:07.989Z,102601.91
2023-02-28T09:06:36.129Z,102600.44
2023-02-28T09:09:06.991Z,102587.81
2023-02-28T09:11:36.797Z,102590.63
2023-02-28T09:14:04.929Z,102588.59
2023-02-28T09:16:35.481Z,102589.84
2023-02-28T09:19:03.560Z,102581.09
2023-02-28T09:21:31.793Z,102577.84
2023-02-28T09:23:59.760Z,102594.44
2023-02-28T09:26:34.936Z,102591.97
2023-02-28T09:29:11.087Z,102589.63
2023-02-28T09:31:39.037Z,102581.91
2023-02-28T09:34:07.664Z,102586.06
2023-02-28T09:36:45.253Z,102594.91
2023-02-28T09:39:16.379Z,102589.84
2023-02-28T09:41:51.065Z,102582.91
2023-02-28T09:44:40.327Z,102586.38
2023-02-28T09:47:42.328Z,102581.66
2023-02-28T09:50:39.819Z,102595.97
2023-02-28T09:53:40.811Z,102595.25
2023-02-28T09:56:42.881Z,102597.47
2023-02-28T09:59:32.580Z,102593.56
2023-02-28T10:02:34.117Z,102598.59
2023-02-28T10:05:19.995Z,102604.78
2023-02-28T10:08:29.062Z,102607.38
2023-02-28T10:11:07.553Z,102598.22
2023-02-28T10:14:15.307Z,102600.25
2023-02-28T10:17:00.562Z,102592.94
2023-02-28T10:20:14.538Z,102597.44
2023-02-28T10:23:35.768Z,102595.81
2023-02-28T10:26:19.665Z,102607.94
2023-02-28T10:28:47.727Z,102601.22
2023-02-28T10:31:21.316Z,102594.13
2023-02-28T10:33:49.566Z,102597.31
2023-02-28T10:36:22.168Z,102599.44
2023-02-28T10:38:51.885Z,102598.84
2023-02-28T10:41:37.179Z,102599.00
2023-02-28T10:44:23.804Z,102591.25
2023-02-28T10:46:52.829Z,102599.44
2023-02-28T10:49:30.822Z,102592.28
2023-02-28T10:52:02.290Z,102597.06
2023-02-28T10:54:38.754Z,102585.25
2023-02-28T10:57:29.404Z,102586.00
2023-02-28T11:00:26.433Z,102570.34
2023-02-28T11:02:54.397Z,102570.09
2023-02-28T11:05:36.225Z,102553.31
2023-02-28T11:08:19.199Z,102560.53
2023-02-28T11:11:01.635Z,102555.78
2023-02-28T11:13:38.741Z,102549.75
2023-02-28T11:16:12.501Z,102553.59
2023-02-28T11:18:56.161Z,102555.06
2023-02-28T11:21:41.365Z,102556.47
2023-02-28T11:24:34.270Z,102554.66
2023-02-28T11:27:02.814Z,102552.75
2023-02-28T11:29:35.794Z,102560.00
2023-02-28T11:32:21.284Z,102560.31
2023-02-28T11:35:10.124Z,102558.00
2023-02-28T11:37:44.784Z,102546.03
2023-02-28T11:40:28.201Z,102560.69
2023-02-28T11:44:03.674Z,102556.53
2023-02-28T11:46:54.334Z,102562.31
2023-02-28T11:49:39.401Z,102554.59
2023-02-28T11:52:56.507Z,102553.66
2023-02-28T11:56:08.987Z,102544.69
2023-02-28T11:59:14.734Z,102551.94
2023-02-28T12:02:17.253Z,102563.25
2023-02-28T12:05:07.863Z,102553.34
2023-02-28T12:08:25.041Z,102550.13
2023-02-28T12:11:10.623Z,102541.25
2023-02-28T12:14:23.034Z,102543.47
2023-02-28T12:17:13.140Z,102531.28
2023-02-28T12:20:34.784Z,102526.72
2023-02-28T12:23:47.951Z,102515.63
2023-02-28T12:26:45.045Z,102512.97
2023-02-28T12:29:45.439Z,102513.25
2023-02-28T12:32:27.738Z,102501.69
2023-02-28T12:35:23.856Z,102503.13
2023-02-28T12:38:25.330Z,102495.94
2023-02-28T12:41:15.066Z,102491.09
2023-02-28T12:43:56.476Z,102497.72
2023-02-28T12:46:49.907Z,102491.31
2023-02-28T12:49:47.368Z,102481.34
2023-02-28T12:52:25.925Z,102475.72
2023-02-28T12:55:09.682Z,102471.56
2023-02-28T12:57:58.780Z,102466.34
2023-02-28T13:00:37.862Z,102460.63
2023-02-28T13:03:33.124Z,102465.47
2023-02-28T13:06:37.515Z,102457.16
2023-02-28T13:09:16.607Z,102462.81
2023-02-28T13:11:55.467Z,102451.03
2023-02-28T13:14:39.192Z,102450.25
2023-02-28T13:17:16.146Z,102455.59
2023-02-28T13:19:55.729Z,102454.06
2023-02-28T13:22:45.582Z,102444.63
2023-02-28T13:25:34.995Z,102457.66
2023-02-28T13:28:11.062Z,102451.88
2023-02-28T13:30:58.189Z,102449.69
2023-02-28T13:33:50.604Z,102451.94
2023-02-28T13:36:18.463Z,102453.41
2023-02-28T13:39:37.713Z,102450.72
2023-02-28T13:42:50.541Z,102458.50
2023-02-28T13:45:24.976Z,102449.97
2023-02-28T13:48:18.917Z,102460.88
2023-02-28T13:50:50.502Z,102458.47
2023-02-28T13:53:18.296Z,102447.31
2023-02-28T13:56:22.834Z,102433.81
2023-02-28T13:59:36.415Z,102439.81
2023-02-28T14:02:28.968Z,102439.06
2023-02-28T14:05:26.975Z,102437.69
2023-02-28T14:08:00.588Z,102435.63
2023-02-28T14:10:48.027Z,102445.50
2023-02-28T14:13:47.982Z,102431.63
2023-02-28T14:16:23.046Z,102431.31
2023-02-28T14:19:06.225Z,102427.25
2023-02-28T14:21:37.299Z,102429.44
2023-02-28T14:24:43.055Z,102422.97
2023-02-28T14:27:45.552Z,102437.09
2023-02-28T14:31:02.457Z,102435.53
2023-02-28T14:34:21.245Z,102435.06
2023-02-28T14:36:51.894Z,102430.50
2023-02-28T14:39:35.419Z,102430.00
2023-02-28T14:42:38.861Z,102431.47
2023-02-28T14:45:07.896Z,102427.81
2023-02-28T14:47:37.002Z,102426.56
2023-02-28T14:50:06.456Z,102423.47
2023-02-28T14:52:36.242Z,102424.84
2023-02-28T14:55:16.452Z,102427.78
2023-02-28T14:58:20.496Z,102423.94
2023-02-28T15:00:51.833Z,102413.56
2023-02-28T15:03:32.775Z,102413.22
2023-02-28T15:06:18.883Z,102410.06
2023-02-28T15:08:47.254Z,102414.13
2023-02-28T15:11:23.274Z,102420.59
2023-02-28T15:13:56.536Z,102415.53
2023-02-28T15:16:39.815Z,102408.16
2023-02-28T15:19:37.086Z,102406.78
2023-02-28T15:22:17.863Z,102409.22
2023-02-28T15:24:53.416Z,102408.47
2023-02-28T15:27:33.294Z,102414.41
2023-02-28T15:30:10.045Z,102405.13
2023-02-28T15:32:40.873Z,102395.34
2023-02-28T15:35:32.615Z,102400.56
2023-02-28T15:38:27.558Z,102399.28
2023-02-28T15:40:59.816Z,102397.56
2023-02-28T15:43:34.909Z,102400.56
2023-02-28T15:46:14.109Z,102407.69
2023-02-28T15:49:22.120Z,102405.66
2023-02-28T15:51:53.490Z,102404.59
2023-02-28T15:54:34.135Z,102407.00
2023-02-28T15:57:13.834Z,102406.53
2023-02-28T15:59:58.522Z,102407.47
2023-02-28T16:02:38.630Z,102405.56
2023-02-28T16:05:12.110Z,102395.13
2023-02-28T16:07:44.444Z,102399.38
2023-02-28T16:10:16.859Z,102409.22
2023-02-28T16:12:45.727Z,102403.59
2023-02-28T16:15:29.581Z,102410.81
2023-02-28T16:17:59.130Z,102413.28
2023-02-28T16:20:32.269Z,102405.78
2023-02-28T16:23:02.827Z,102413.09
2023-02-28T16:25:39.613Z,102408.53
2023-02-28T16:28:33.350Z,102413.94
2023-02-28T16:31:04.807Z,102404.63
2023-02-28T16:33:34.144Z,102400.25
2023-02-28T16:36:02.268Z,102394.50
2023-02-28T16:38:30.272Z,102398.00
2023-02-28T16:41:02.106Z,102406.38
2023-02-28T16:43:30.405Z,102410.31
2023-02-28T16:46:01.250Z,102410.31
2023-02-28T16:48:29.401Z,102409.91
2023-02-28T16:50:57.350Z,102405.63
2023-02-28T16:53:25.213Z,102409.69
2023-02-28T16:55:53.047Z,102410.41
2023-02-28T16:58:22.647Z,102410.94
2023-02-28T17:00:50.824Z,102412.91
2023-02-28T17:03:33.408Z,102415.09
2023-02-28T17:06:02.785Z,102410.81
2023-02-28T17:08:33.079Z,102416.47
2023-02-28T17:11:02.515Z,102421.34
2023-02-28T17:13:30.677Z,102419.59
2023-02-28T17:15:58.639Z,102423.69
2023-02-28T17:18:27.632Z,102427.88
2023-02-28T17:20:55.497Z,102418.03
2023-02-28T17:23:23.398Z,102424.19
2023-02-28T17:25:58.223Z,102426.63
2023-02-28T17:28:26.494Z,102417.03
2023-02-28T17:30:54.411Z,102428.28
2023-02-28T17:33:22.387Z,102426.34
2023-02-28T17:35:50.471Z,102428.09
2023-02-28T17:38:20.495Z,102435.16
2023-02-28T17:40:48.525Z,102435.38
2023-02-28T17:43:16.680Z,102425.72
2023-02-28T17:45:47.448Z,102429.50
2023-02-28T17:48:17.880Z,102438.16
2023-02-28T17:50:45.843Z,102434.47
2023-02-28T17:53:14.956Z,102426.94
2023-02-28T17:55:42.843Z,102436.75
2023-02-28T17:58:13.774Z,102443.38
2023-02-28T18:00:41.910Z,102436.28
2023-02-28T18:03:10.541Z,102438.97
2023-02-28T18:05:38.585Z,102447.63
2023-02-28T18:08:06.416Z,102446.22
2023-02-28T18:10:34.597Z,102443.19
2023-02-28T18:13:04.493Z,102443.03
2023-02-28T18:15:32.354Z,102440.88
2023-02-28T18:18:00.468Z,102441.16
2023-02-28T18:20:29.622Z,102446.13
2023-02-28T18:22:57.550Z,102450.03
2023-02-28T18:25:25.998Z,102450.19
2023-02-28T18:27:54.496Z,102452.25
2023-02-28T18:30:22.904Z,102460.69
2023-02-28T18:32:51.051Z,102468.13
2023-02-28T18:35:34.694Z,102473.41
2023-02-28T18:38:19.255Z,102470.06
2023-02-28T18:41:01.002Z,102481.25
2023-02-28T18:43:32.330Z,102485.00
2023-02-28T18:46:12.969Z,102482.41
2023-02-28T18:48:41.597Z,102478.78
2023-02-28T18:51:20.771Z,102485.66
2023-02-28T18:53:48.780Z,102476.53
2023-02-28T18:56:23.071Z,102476.25
2023-02-28T18:58:52.339Z,102472.25
2023-02-28T19:01:29.975Z,102474.38
2023-02-28T19:04:03.365Z,102470.19
2023-02-28T19:06:33.174Z,102463.00
2023-02-28T19:09:04.113Z,102458.19
2023-02-28T19:11:32.620Z,102463.34
2023-02-28T19:14:01.225Z,102470.75
2023-02-28T19:16:29.771Z,102470.75
2023-02-28T19:18:57.903Z,102467.91
2023-02-28T19:21:26.205Z,102468.81
2023-02-28T19:23:54.244Z,102469.00
2023-02-28T19:26:25.383Z,102467.81
2023-02-28T19:28:53.564Z,102467.28
2023-02-28T19:31:25.745Z,102466.63
2023-02-28T19:33:54.152Z,102469.75
2023-02-28T19:36:22.459Z,102460.94
2023-02-28T19:38:50.666Z,102463.81
2023-02-28T19:41:19.549Z,102462.59
2023-02-28T19:43:47.903Z,102456.78
2023-02-28T19:46:16.125Z,102449.06
2023-02-28T19:48:44.890Z,102454.38
2023-02-28T19:53:44.897Z,102460.31
2023-02-28T19:56:13.065Z,102455.06
2023-02-28T19:58:41.289Z,102466.44
2023-02-28T20:01:16.918Z,102457.13
2023-02-28T20:03:49.924Z,102458.25
2023-02-28T20:06:18.468Z,102472.94
2023-02-28T20:08:47.639Z,102470.03
2023-02-28T20:11:17.462Z,102465.94
2023-02-28T20:13:45.848Z,102477.31
2023-02-28T20:16:15.675Z,102468.53
2023-02-28T20:18:44.547Z,102465.63
2023-02-28T20:21:14.365Z,102463.28
2023-02-28T20:23:43.357Z,102462.16
2023-02-28T20:26:12.629Z,102458.88
2023-02-28T20:28:41.258Z,102464.34
2023-02-28T20:31:25.466Z,102462.81
2023-02-28T20:33:53.588Z,102460.41
2023-02-28T20:36:22.699Z,102460.94
2023-02-28T20:38:53.365Z,102453.56
2023-02-28T20:41:22.641Z,102446.53
2023-02-28T20:43:59.064Z,102448.25
2023-02-28T20:46:30.141Z,102442.84
2023-02-28T20:48:58.626Z,102444.50
2023-02-28T20:51:26.700Z,102447.56
2023-02-28T20:53:54.605Z,102454.34
2023-02-28T20:56:23.860Z,102453.72
2023-02-28T20:58:58.053Z,102452.72
2023-02-28T21:01:28.752Z,102452.44
2023-02-28T21:04:06.014Z,102444.69
2023-02-28T21:06:47.482Z,102447.38
2023-02-28T21:09:16.403Z,102444.53
2023-02-28T21:11:45.909Z,102445.66
2023-02-28T21:14:18.290Z,102442.91
2023-02-28T21:16:46.876Z,102442.84
2023-02-28T21:19:16.188Z,102443.94
2023-02-28T21:21:46.779Z,102442.47
2023-02-28T21:24:19.265Z,102445.19
2023-02-28T21:26:48.543Z,102451.13
2023-02-28T21:29:16.739Z,102435.94
2023-02-28T21:31:44.690Z,102441.44
2023-02-28T21:34:13.893Z,102440.06
2023-02-28T21:36:47.207Z,102445.72
2023-02-28T21:39:29.940Z,102445.47
2023-02-28T21:42:03.432Z,102448.88
2023-02-28T21:44:34.411Z,102456.31
2023-02-28T21:47:02.693Z,102455.47
2023-02-28T21:49:31.101Z,102460.50
2023-02-28T21:51:59.488Z,102456.38
2023-02-28T21:54:27.596Z,102459.78
2023-02-28T21:56:56.229Z,102458.09
2023-02-28T21:59:24.346Z,102458.91
2023-02-28T22:01:52.326Z,102464.09
2023-02-28T22:04:23.180Z,102458.72
2023-02-28T22:06:59.493Z,102450.50
2023-02-28T22:09:27.766Z,102456.41
2023-02-28T22:11:57.452Z,102462.13
2023-02-28T22:14:25.530Z,102465.69
2023-02-28T22:16:55.014Z,102465.81
2023-02-28T22:19:24.038Z,102461.66
2023-02-28T22:21:53.822Z,102459.16
2023-02-28T22:24:24.317Z,102464.22
2023-02-28T22:26:53.791Z,102464.16
2023-02-28T22:29:22.149Z,102465.03
2023-02-28T22:31:50.656Z,102468.38
2023-02-28T22:34:20.008Z,102470.09
2023-02-28T22:36:48.010Z,102476.00
2023-02-28T22:39:16.326Z,102473.50
2023-02-28T22:41:44.212Z,102474.50
2023-02-28T22:44:12.288Z,102468.53
2023-02-28T22:46:40.347Z,102471.13
2023-02-28T22:49:08.448Z,102473.69
2023-02-28T22:51:36.515Z,102476.22
2023-02-28T22:54:05.074Z,102480.47
2023-02-28T22:56:33.558Z,102485.56
2023-02-28T22:59:03.615Z,102480.34
2023-02-28T23:01:34.606Z,102483.88
2023-02-28T23:04:02.966Z,102489.91
2023-02-28T23:06:44.242Z,102487.34
2023-02-28T23:09:23.537Z,102490.72
2023-02-28T23:11:52.169Z,102483.88
2023-02-28T23:14:21.629Z,102490.75
2023-02-28T23:16:54.079Z,102489.78
2023-02-28T23:19:29.959Z,102493.34
2023-02-28T23:22:00.160Z,102490.84
2023-02-28T23:24:33.163Z,102494.16
2023-02-28T23:27:05.870Z,102493.88
2023-02-28T23:29:35.768Z,102493.81
2023-02-28T23:32:04.420Z,102483.41
2023-02-28T23:34:32.450Z,102482.59
2023-02-28T23:37:02.130Z,102479.97
2023-02-28T23:39:31.510Z,102488.47
2023-02-28T23:42:00.053Z,102478.50
2023-02-28T23:44:27.984Z,102481.16
2023-02-28T23:46:56.041Z,102473.97
2023-02-28T23:49:24.011Z,102481.84
2023-02-28T23:51:54.378Z,102481.19
2023-02-28T23:54:22.735Z,102483.03
2023-02-28T23:56:50.700Z,102479.66
2023-02-28T23:59:19.271Z,102484.63
